Time;durP1;ratioP1;P1;durP2;ratioP2;P2;SDS_P1;SDS_P2;PMS_P1;PMS_P2;Temp;Humidity;BMP_temperature;BMP_pressure;BME280_temperature;BME280_humidity;BME280_pressure;Samples;Min_cycle;Max_cycle;Signal;HPM_P1;HPM_P2
2022/07/15 00:02:17;;;;;;;7.93;1.83;;;;;;;18.38;48.91;102162.59;4989067;28;123970;-63
2022/07/15 00:04:44;;;;;;;5.78;2.13;;;;;;;18.35;48.86;102173.53;4986729;28;123827;-63
2022/07/15 00:07:13;;;;;;;8.50;2.35;;;;;;;18.32;49.04;102173.69;4987760;28;115555;-63
2022/07/15 00:12:26;;;;;;;6.28;2.10;;;;;;;18.23;49.08;102171.53;4988283;28;124570;-64
2022/07/15 00:14:53;;;;;;;6.38;1.90;;;;;;;18.19;49.32;102161.91;4972711;28;124382;-64
2022/07/15 00:17:20;;;;;;;6.65;2.15;;;;;;;18.15;49.09;102165.72;4986621;28;114659;-64
2022/07/15 00:19:47;;;;;;;6.20;2.17;;;;;;;18.11;49.40;102165.03;4985478;28;113888;-63
2022/07/15 00:22:15;;;;;;;5.43;1.77;;;;;;;18.08;49.33;102166.09;4969907;28;124165;-64
2022/07/15 00:24:42;;;;;;;3.92;1.75;;;;;;;18.04;49.28;102164.50;4990522;28;124297;-64
2022/07/15 00:27:09;;;;;;;4.65;1.90;;;;;;;18.01;49.37;102159.31;4972211;28;113618;-64
2022/07/15 00:29:36;;;;;;;7.13;2.05;;;;;;;17.99;49.31;102161.22;4970403;28;114037;-64
2022/07/15 00:32:04;;;;;;;6.28;1.90;;;;;;;17.96;49.49;102165.88;4971316;28;123131;-64
2022/07/15 00:34:32;;;;;;;7.07;1.90;;;;;;;17.91;49.49;102163.44;4972200;28;123298;-64
2022/07/15 00:36:59;;;;;;;3.85;1.70;;;;;;;17.87;49.69;102162.75;4956287;28;113033;-64
2022/07/15 00:39:26;;;;;;;6.45;1.90;;;;;;;17.84;49.50;102162.03;4982089;28;112898;-64
2022/07/15 00:41:53;;;;;;;6.75;2.10;;;;;;;17.80;49.57;102157.78;4972261;28;123584;-64
2022/07/15 00:44:21;;;;;;;7.47;2.08;;;;;;;17.77;49.77;102160.63;4987169;28;124291;-64
2022/07/15 00:46:48;;;;;;;5.82;2.10;;;;;;;17.73;49.76;102159.09;4957276;28;113370;-64
2022/07/15 00:49:15;;;;;;;4.53;2.08;;;;;;;17.70;49.82;102160.09;4962059;28;112798;-64
2022/07/15 00:51:46;;;;;;;5.40;2.10;;;;;;;17.67;49.97;102155.78;4971347;28;123156;-64
2022/07/15 00:54:15;;;;;;;5.18;2.03;;;;;;;17.62;50.02;102157.81;4987867;28;123986;-64
2022/07/15 00:56:48;;;;;;;5.15;2.20;;;;;;;17.58;49.95;102150.91;4971757;28;114628;-64
2022/07/15 00:59:17;;;;;;;3.60;1.92;;;;;;;17.55;49.90;102153.75;4969774;28;115623;-64
2022/07/15 01:01:45;;;;;;;5.25;2.03;;;;;;;17.54;50.07;102162.75;4958843;28;125271;-64
2022/07/15 01:04:13;;;;;;;5.07;2.05;;;;;;;17.49;50.16;102151.41;4990603;28;124422;-64
2022/07/15 01:06:41;;;;;;;6.95;2.25;;;;;;;17.45;50.14;102155.19;4988964;28;114553;-64
2022/07/15 01:09:08;;;;;;;5.95;2.10;;;;;;;17.43;50.24;102157.09;4987948;28;113861;-64
2022/07/15 01:11:36;;;;;;;7.43;2.17;;;;;;;17.40;50.28;102159.91;4975094;28;123276;-64
2022/07/15 01:14:04;;;;;;;6.60;2.08;;;;;;;17.36;50.45;102161.03;4975517;28;122791;-64
2022/07/15 01:16:32;;;;;;;7.20;2.13;;;;;;;17.32;50.48;102161.19;4975442;28;113322;-64
2022/07/15 01:18:59;;;;;;;6.78;2.53;;;;;;;17.29;50.26;102161.38;4972668;28;114421;-65
2022/07/15 01:21:36;;;;;;;9.68;2.40;;;;;;;17.25;50.43;102165.16;4973589;28;123627;-64
2022/07/15 01:24:04;;;;;;;5.85;2.40;;;;;;;17.23;50.62;102167.00;4965117;28;123089;-64
2022/07/15 01:26:41;;;;;;;7.43;2.05;;;;;;;17.22;50.45;102164.44;4974968;28;114099;-64
2022/07/15 01:29:10;;;;;;;7.20;2.22;;;;;;;17.19;50.47;102160.09;4974093;28;113227;-65
2022/07/15 01:31:39;;;;;;;5.75;1.88;;;;;;;17.17;50.70;102156.63;4975033;28;123386;-65
2022/07/15 01:34:06;;;;;;;5.05;1.98;;;;;;;17.14;50.72;102162.16;4972466;28;123133;-64
2022/07/15 01:36:34;;;;;;;7.38;2.10;;;;;;;17.12;50.78;102161.34;4974958;28;113611;-64
2022/07/15 01:39:03;;;;;;;6.63;2.17;;;;;;;17.09;50.64;102170.41;4974308;28;113594;-64
2022/07/15 01:41:50;;;;;;;4.78;1.95;;;;;;;17.05;50.81;102168.00;4974932;28;123342;-64
2022/07/15 01:44:18;;;;;;;4.38;1.90;;;;;;;17.04;50.77;102166.25;4974778;28;123248;-64
2022/07/15 01:46:46;;;;;;;5.15;2.40;;;;;;;17.03;50.87;102161.84;4965893;28;113317;-64
2022/07/15 01:49:22;;;;;;;5.65;2.00;;;;;;;17.00;51.11;102160.19;4974018;28;114137;-63
2022/07/15 01:51:59;;;;;;;4.63;1.98;;;;;;;16.99;50.78;102168.28;4991295;28;124134;-63
2022/07/15 01:54:28;;;;;;;5.47;2.20;;;;;;;16.95;50.93;102172.06;4972126;28;122915;-63
2022/07/15 01:56:59;;;;;;;7.57;2.38;;;;;;;16.92;50.98;102165.91;4946140;28;113319;-63
2022/07/15 01:59:27;;;;;;;4.53;2.08;;;;;;;16.90;51.17;102172.31;4990756;28;114192;-64
2022/07/15 02:01:57;;;;;;;7.55;2.10;;;;;;;16.88;51.17;102171.53;4974268;28;123265;-64
2022/07/15 02:04:26;;;;;;;4.85;1.98;;;;;;;16.85;51.34;102167.16;4959701;28;123383;-64
2022/07/15 02:06:53;;;;;;;5.47;1.88;;;;;;;16.83;51.21;102179.75;4988526;28;114357;-63
2022/07/15 02:09:21;;;;;;;5.60;1.83;;;;;;;16.81;51.43;102175.41;4976081;28;113337;-63
2022/07/15 02:11:51;;;;;;;5.50;1.80;;;;;;;16.77;51.85;102174.69;4957344;28;123213;-63
2022/07/15 02:14:22;;;;;;;6.03;2.05;;;;;;;16.76;51.61;102172.94;4973218;28;123246;-63
2022/07/15 02:16:50;;;;;;;4.88;1.88;;;;;;;16.75;51.55;102173.91;4974597;28;113614;-63
2022/07/15 02:19:25;;;;;;;;;;;;;;;16.72;50.92;102174.03;4969749;28;116311;-63
2022/07/15 02:21:56;;;;;;;5.75;1.90;;;;;;;16.74;51.21;102177.50;4974683;28;123710;-63
2022/07/15 02:24:23;;;;;;;6.68;2.10;;;;;;;16.73;51.47;102178.47;4957599;28;123056;-63
2022/07/15 02:26:50;;;;;;;6.45;2.22;;;;;;;16.72;51.52;102177.56;4972000;28;114019;-63
2022/07/15 02:29:18;;;;;;;6.63;2.25;;;;;;;16.71;51.36;102172.34;4987213;28;114525;-63
2022/07/15 02:31:45;;;;;;;7.45;2.28;;;;;;;16.71;51.65;102175.00;4972996;28;123162;-63
2022/07/15 02:34:13;;;;;;;6.30;1.75;;;;;;;16.69;51.97;102182.25;4956233;28;124173;-63
2022/07/15 02:36:41;;;;;;;6.20;1.98;;;;;;;16.66;51.93;102177.03;4973698;28;114747;-63
2022/07/15 02:39:09;;;;;;;5.90;2.17;;;;;;;16.67;51.73;102181.44;4959322;28;114134;-63
2022/07/15 02:41:37;;;;;;;5.72;1.92;;;;;;;16.65;51.85;102180.63;4957662;28;123261;-63
2022/07/15 02:44:09;;;;;;;6.70;2.40;;;;;;;16.64;52.10;102189.63;4954557;28;123063;-63
2022/07/15 02:46:40;;;;;;;5.80;2.00;;;;;;;16.62;51.78;102180.81;4974442;28;113468;-63
2022/07/15 02:49:07;;;;;;;5.07;2.05;;;;;;;16.60;51.90;102188.03;4972524;28;112954;-63
2022/07/15 02:51:34;;;;;;;7.07;2.70;;;;;;;16.57;51.95;102183.69;4973990;28;122911;-64
2022/07/15 02:54:01;;;;;;;6.97;2.15;;;;;;;16.54;52.01;102184.72;4973890;28;122706;-63
2022/07/15 02:56:31;;;;;;;6.78;2.28;;;;;;;16.52;52.00;102186.59;4973600;28;113500;-63
2022/07/15 02:58:59;;;;;;;4.55;2.15;;;;;;;16.49;52.21;102181.41;4961957;28;113173;-63
2022/07/15 03:01:26;;;;;;;5.60;2.10;;;;;;;16.48;52.09;102186.81;4973097;28;124647;-66
2022/07/15 03:03:55;;;;;;;5.10;2.22;;;;;;;16.46;52.06;102186.91;4973443;28;122954;-66
2022/07/15 03:06:24;;;;;;;6.65;2.10;;;;;;;16.44;52.10;102194.09;4971553;28;113835;-67
2022/07/15 03:08:51;;;;;;;6.20;2.30;;;;;;;16.42;52.24;102196.00;4972981;28;113105;-66
2022/07/15 03:11:20;;;;;;;4.93;2.10;;;;;;;16.39;52.40;102201.50;4962717;28;124020;-65
2022/07/15 03:13:49;;;;;;;3.97;2.10;;;;;;;16.38;52.39;102205.09;4971507;28;122956;-66
2022/07/15 03:16:16;;;;;;;5.10;2.05;;;;;;;16.37;52.50;102203.41;4988985;28;114614;-66
2022/07/15 03:18:46;;;;;;;6.18;2.60;;;;;;;16.36;52.62;102207.00;4972799;28;113039;-65
2022/07/15 03:21:14;;;;;;;5.60;2.40;;;;;;;16.34;52.56;102203.53;4961923;28;123208;-64
2022/07/15 03:23:43;;;;;;;6.20;2.40;;;;;;;16.33;52.51;102212.47;4962163;28;123494;-66
2022/07/15 03:26:10;;;;;;;4.40;2.25;;;;;;;16.29;52.65;102209.09;4971579;28;114420;-66
2022/07/15 03:28:37;;;;;;;6.80;2.83;;;;;;;16.28;52.66;102209.19;4971847;28;114129;-66
2022/07/15 03:31:06;;;;;;;6.47;2.30;;;;;;;16.27;52.62;102210.09;4948046;28;123144;-66
2022/07/15 03:33:34;;;;;;;4.88;2.65;;;;;;;16.26;52.70;102208.38;4988030;28;124041;-64
2022/07/15 03:36:02;;;;;;;5.40;2.30;;;;;;;16.26;52.79;102211.06;4960946;28;113751;-63
2022/07/15 03:38:32;;;;;;;4.57;2.60;;;;;;;16.23;52.85;102216.53;4969983;28;113276;-66
2022/07/15 03:40:59;;;;;;;5.45;2.50;;;;;;;16.23;52.86;102224.56;4973350;28;122509;-66
2022/07/15 03:43:29;;;;;;;6.93;2.42;;;;;;;16.21;53.09;102221.94;4978938;28;123045;-66
2022/07/15 03:45:58;;;;;;;5.63;2.50;;;;;;;16.21;53.10;102223.75;4973291;28;114094;-66
2022/07/15 03:48:26;;;;;;;4.57;2.60;;;;;;;16.20;53.10;102232.72;4956793;28;113545;-66
2022/07/15 03:50:53;;;;;;;6.60;2.60;;;;;;;16.21;53.10;102229.09;4956380;28;123007;-66
2022/07/15 03:53:20;;;;;;;6.90;2.58;;;;;;;16.21;53.34;102232.63;4969890;28;122704;-66
2022/07/15 03:55:48;;;;;;;8.05;2.35;;;;;;;16.22;53.30;102229.03;4985019;28;113827;-66
2022/07/15 03:58:15;;;;;;;5.97;2.40;;;;;;;16.22;53.34;102230.81;4987668;28;114353;-66
2022/07/15 04:00:42;;;;;;;5.20;2.22;;;;;;;16.22;53.58;102238.84;4971833;28;123590;-66
2022/07/15 04:03:09;;;;;;;6.57;2.63;;;;;;;16.24;53.43;102245.03;4984166;28;122690;-66
2022/07/15 04:05:38;;;;;;;7.35;2.38;;;;;;;16.25;53.68;102252.94;4973114;28;114228;-65
2022/07/15 04:08:05;;;;;;;5.63;2.47;;;;;;;16.28;53.66;102246.59;4972558;28;113359;-64
2022/07/15 04:10:32;;;;;;;5.57;2.40;;;;;;;16.32;53.87;102248.19;4958592;28;123353;-65
2022/07/15 04:13:00;;;;;;;6.40;2.40;;;;;;;16.32;53.67;102249.03;4972471;28;123066;-65
2022/07/15 04:15:29;;;;;;;8.20;2.90;;;;;;;16.35;53.75;102254.25;4972145;28;114352;-64
2022/07/15 04:17:58;;;;;;;8.48;2.90;;;;;;;16.39;53.84;102249.63;4971877;28;113808;-65
2022/07/15 04:20:25;;;;;;;6.85;2.75;;;;;;;16.41;53.84;102247.75;4970353;28;123664;-65
2022/07/15 04:22:55;;;;;;;8.23;2.95;;;;;;;16.45;53.88;102246.66;4972607;28;123049;-64
2022/07/15 04:25:23;;;;;;;5.70;3.13;;;;;;;16.49;53.98;102253.59;4956743;28;113617;-64
2022/07/15 04:27:51;;;;;;;10.48;3.50;;;;;;;16.53;54.04;102252.50;4971402;28;113152;-65
2022/07/15 04:30:24;;;;;;;15.00;3.22;;;;;;;16.57;53.92;102257.72;4972366;28;123702;-64
2022/07/15 04:32:51;;;;;;;6.55;3.20;;;;;;;16.60;54.08;102253.09;4972277;28;124159;-65
2022/07/15 04:35:20;;;;;;;8.30;3.20;;;;;;;16.65;54.07;102260.88;4972200;28;113219;-65
2022/07/15 04:37:55;;;;;;;7.50;2.95;;;;;;;16.70;54.16;102253.53;4968787;28;114599;-65
2022/07/15 04:40:22;;;;;;;9.07;2.88;;;;;;;16.74;54.06;102249.75;4971278;28;123746;-65
2022/07/15 04:42:51;;;;;;;6.80;3.40;;;;;;;16.78;54.11;102259.34;4971753;28;123267;-65
2022/07/15 04:45:18;;;;;;;6.68;3.47;;;;;;;16.83;54.26;102265.38;4956280;28;113216;-65
2022/07/15 04:47:45;;;;;;;5.90;2.95;;;;;;;16.87;54.25;102250.06;4971510;28;113748;-64
2022/07/15 04:53:05;;;;;;;7.70;3.20;;;;;;;17.01;54.43;102252.03;4989124;28;123984;-65
2022/07/15 04:55:33;;;;;;;7.57;3.00;;;;;;;17.13;54.89;102251.44;4990613;28;114757;-64
2022/07/15 04:58:03;;;;;;;7.88;2.85;;;;;;;17.27;55.24;102248.94;4959394;28;113182;-65
2022/07/15 05:00:30;;;;;;;6.72;3.08;;;;;;;17.45;54.92;102248.94;4987721;28;124391;-64
2022/07/15 05:02:57;;;;;;;7.60;2.90;;;;;;;17.59;54.83;102253.56;4971875;28;123077;-64
2022/07/15 05:05:27;;;;;;;5.80;3.10;;;;;;;17.71;54.40;102253.81;4989060;28;115357;-64
2022/07/15 05:07:55;;;;;;;7.90;2.70;;;;;;;17.80;54.27;102256.94;4971206;28;114067;-64
2022/07/15 05:10:22;;;;;;;6.47;2.60;;;;;;;17.88;54.27;102260.13;4960503;28;123223;-64
2022/07/15 05:13:02;;;;;;;5.47;2.92;;;;;;;17.95;54.13;102256.16;4986328;28;123264;-64
2022/07/15 05:15:30;;;;;;;5.97;2.63;;;;;;;18.02;53.77;102262.91;4972608;28;113729;-64
2022/07/15 05:18:07;;;;;;;5.32;2.70;;;;;;;18.09;53.57;102253.59;4963808;28;116214;-64
2022/07/15 05:20:35;;;;;;;5.35;2.88;;;;;;;18.14;53.78;102260.50;4963152;28;123571;-64
2022/07/15 05:23:03;;;;;;;6.68;2.50;;;;;;;18.17;53.53;102263.03;4987681;28;124167;-64
2022/07/15 05:25:34;;;;;;;5.50;2.35;;;;;;;18.18;53.48;102268.31;4956825;28;113295;-65
2022/07/15 05:28:02;;;;;;;5.38;2.50;;;;;;;18.21;53.40;102268.16;4985517;28;114098;-65
2022/07/15 05:30:29;;;;;;;7.00;2.83;;;;;;;18.23;53.17;102260.03;4971252;28;123291;-64
2022/07/15 05:33:01;;;;;;;7.78;2.50;;;;;;;18.25;53.37;102263.47;4970717;28;123252;-64
2022/07/15 05:35:28;;;;;;;8.90;2.67;;;;;;;18.29;53.41;102270.44;4945734;28;113329;-64
2022/07/15 05:37:55;;;;;;;7.45;2.55;;;;;;;18.33;53.33;102269.31;4987372;28;114783;-64
2022/07/15 05:40:29;;;;;;;7.78;2.50;;;;;;;18.36;53.47;102265.59;4955966;28;123233;-64
2022/07/15 05:42:56;;;;;;;8.90;2.60;;;;;;;18.40;53.48;102268.03;4970921;28;123190;-64
2022/07/15 05:45:25;;;;;;;6.85;2.22;;;;;;;18.46;53.34;102266.81;4971243;28;115327;-64
2022/07/15 05:47:59;;;;;;;7.07;2.70;;;;;;;18.52;53.37;102265.63;4971119;28;117162;-64
2022/07/15 05:50:30;;;;;;;6.22;2.00;;;;;;;18.58;53.53;102254.53;4974718;28;123260;-64
2022/07/15 05:53:00;;;;;;;5.15;1.50;;;;;;;18.65;53.06;102255.91;4988789;28;124050;-65
2022/07/15 05:55:27;;;;;;;8.48;1.80;;;;;;;18.72;53.24;102257.28;4958711;28;114154;-65
2022/07/15 05:57:55;;;;;;;6.55;1.40;;;;;;;18.79;53.20;102252.44;4974446;28;114037;-65
2022/07/15 06:00:27;;;;;;;4.45;1.50;;;;;;;18.86;52.78;102254.72;4974280;28;122902;-65
2022/07/15 06:02:55;;;;;;;9.38;1.60;;;;;;;18.96;52.61;102259.56;4961700;28;122966;-64
2022/07/15 06:05:25;;;;;;;3.83;1.52;;;;;;;19.03;52.61;102255.56;4974563;28;114149;-64
2022/07/15 06:07:57;;;;;;;5.93;1.40;;;;;;;19.10;52.32;102251.56;4974229;28;113164;-64
2022/07/15 06:10:32;;;;;;;;;;;;;;;19.16;52.13;102256.56;4974107;28;126743;-64
2022/07/15 06:12:59;;;;;;;6.05;1.40;;;;;;;19.29;51.79;102255.84;4974723;28;123468;-64
2022/07/15 06:15:27;;;;;;;5.65;1.35;;;;;;;19.34;51.61;102254.59;4964841;28;113515;-64
2022/07/15 06:17:56;;;;;;;5.47;1.10;;;;;;;19.40;51.54;102253.38;4960429;28;113091;-64
2022/07/15 06:20:26;;;;;;;3.88;1.00;;;;;;;19.46;51.60;102247.66;4957585;28;123154;-63
2022/07/15 06:22:53;;;;;;;10.25;1.30;;;;;;;19.53;51.62;102257.03;4972576;28;122751;-64
2022/07/15 06:25:22;;;;;;;5.10;1.20;;;;;;;19.61;51.65;102257.47;4974090;28;113221;-64
2022/07/15 06:27:51;;;;;;;6.30;1.20;;;;;;;19.71;51.39;102262.28;4960994;28;113163;-64
2022/07/15 06:30:20;;;;;;;4.80;1.10;;;;;;;19.81;51.37;102263.47;4973784;28;123180;-64
2022/07/15 06:32:49;;;;;;;3.22;1.35;;;;;;;19.94;51.27;102253.69;4991073;28;124319;-64
2022/07/15 06:35:17;;;;;;;4.65;1.35;;;;;;;20.05;51.03;102257.53;4957969;28;113311;-64
2022/07/15 06:37:44;;;;;;;3.55;1.48;;;;;;;20.16;50.94;102252.34;4989295;28;114374;-64
2022/07/15 06:40:11;;;;;;;3.80;1.10;;;;;;;20.28;50.50;102259.63;4957587;28;123067;-65
2022/07/15 06:42:38;;;;;;;6.35;1.38;;;;;;;20.39;50.55;102253.56;4964728;28;123009;-65
2022/07/15 06:45:10;;;;;;;5.57;1.45;;;;;;;20.51;50.44;102258.19;4971393;28;114446;-65
2022/07/15 06:47:42;;;;;;;9.07;2.03;;;;;;;20.65;50.40;102257.31;4988276;28;115093;-65
2022/07/15 06:50:10;;;;;;;5.75;1.58;;;;;;;20.78;50.26;102244.75;4987936;28;124695;-65
2022/07/15 06:52:40;;;;;;;5.07;1.80;;;;;;;20.92;50.09;102251.06;4957587;28;122927;-66
2022/07/15 06:55:08;;;;;;;4.28;1.65;;;;;;;21.05;49.77;102246.56;4972686;28;113364;-65
2022/07/15 06:57:35;;;;;;;4.13;1.73;;;;;;;21.17;49.49;102243.06;4960246;28;112956;-65
2022/07/15 07:00:04;;;;;;;6.18;1.90;;;;;;;21.30;49.31;102250.31;4971553;28;122996;-66
2022/07/15 07:02:35;;;;;;;4.30;1.35;;;;;;;21.44;48.93;102242.19;4960918;28;124066;-66
2022/07/15 07:05:04;;;;;;;5.30;1.40;;;;;;;21.58;48.78;102249.31;4972823;28;113923;-66
2022/07/15 07:07:31;;;;;;;6.47;1.40;;;;;;;21.73;48.60;102250.06;4972961;28;113107;-65
2022/07/15 07:09:59;;;;;;;4.72;1.20;;;;;;;21.87;48.39;102252.69;4971882;28;123743;-66
2022/07/15 07:12:26;;;;;;;4.07;1.30;;;;;;;22.00;48.41;102254.47;4987570;28;123476;-65
2022/07/15 07:14:53;;;;;;;4.07;1.23;;;;;;;22.11;47.92;102247.38;4960072;28;113045;-65
2022/07/15 07:17:20;;;;;;;4.20;1.42;;;;;;;22.24;47.80;102251.88;4988728;28;114487;-66
2022/07/15 07:19:48;;;;;;;10.27;1.52;;;;;;;22.33;47.32;102246.69;4972291;28;122979;-66
2022/07/15 07:22:15;;;;;;;6.15;1.50;;;;;;;22.41;47.08;102253.38;4971980;28;124238;-66
2022/07/15 07:24:44;;;;;;;3.03;1.15;;;;;;;22.49;46.71;102259.06;4990812;28;114627;-66
2022/07/15 07:27:11;;;;;;;5.75;1.48;;;;;;;22.55;46.19;102255.94;4973056;28;114327;-65
2022/07/15 07:29:39;;;;;;;5.43;1.00;;;;;;;22.64;45.87;102254.38;4987635;28;124890;-66
2022/07/15 07:32:06;;;;;;;4.25;1.02;;;;;;;22.72;45.82;102258.25;4971139;28;124220;-66
2022/07/15 07:34:33;;;;;;;3.53;1.50;;;;;;;22.84;45.56;102258.31;4986407;28;115060;-66
2022/07/15 07:37:00;;;;;;;7.15;1.58;;;;;;;22.90;45.44;102260.53;4986035;28;115008;-66
2022/07/15 07:39:27;;;;;;;5.00;1.10;;;;;;;22.95;45.07;102258.38;4985811;28;124182;-67
2022/07/15 07:41:55;;;;;;;6.40;1.17;;;;;;;23.00;44.99;102266.13;4985549;28;124071;-66
2022/07/15 07:44:22;;;;;;;5.65;0.98;;;;;;;23.02;45.25;102264.16;4984555;28;114451;-66
2022/07/15 07:46:49;;;;;;;5.53;0.90;;;;;;;23.09;45.21;102266.34;4985807;28;114028;-66
2022/07/15 07:49:16;;;;;;;3.55;1.00;;;;;;;23.22;44.87;102262.69;4987484;28;123838;-66
2022/07/15 07:52:04;;;;;;;3.55;1.10;;;;;;;23.38;44.47;102275.91;4990409;28;123914;-66
2022/07/15 07:54:32;;;;;;;5.65;1.20;;;;;;;23.48;43.84;102268.81;4990901;28;114117;-66
2022/07/15 07:56:59;;;;;;;4.43;1.27;;;;;;;23.60;43.56;102269.69;4970390;28;114009;-66
2022/07/15 07:59:26;;;;;;;5.82;1.25;;;;;;;23.72;43.49;102266.03;4964370;28;124165;-66
2022/07/15 08:01:53;;;;;;;2.95;1.13;;;;;;;23.87;43.33;102266.72;4955685;28;123637;-66
2022/07/15 08:04:21;;;;;;;3.30;1.05;;;;;;;24.02;43.19;102270.03;4987424;28;114619;-65
2022/07/15 08:06:48;;;;;;;4.03;0.90;;;;;;;24.12;42.72;102281.84;4972512;28;112996;-66
2022/07/15 08:09:16;;;;;;;6.78;1.10;;;;;;;24.10;42.37;102281.13;4971051;28;123060;-66
2022/07/15 08:11:44;;;;;;;3.28;0.98;;;;;;;23.98;42.48;102279.38;4954612;28;122762;-66
2022/07/15 08:14:12;;;;;;;5.55;1.10;;;;;;;23.84;41.95;102278.63;4971362;28;114225;-65
2022/07/15 08:16:42;;;;;;;2.55;1.10;;;;;;;23.71;42.05;102277.81;4987673;28;113803;-66
2022/07/15 08:19:13;;;;;;;3.67;1.20;;;;;;;23.57;42.17;102272.66;4970421;28;124519;-66
2022/07/15 08:21:41;;;;;;;6.03;1.13;;;;;;;23.51;42.73;102271.28;4986283;28;124036;-66
2022/07/15 08:24:10;;;;;;;5.72;1.17;;;;;;;23.60;42.78;102270.56;4983646;28;114963;-66
2022/07/15 08:26:37;;;;;;;3.10;1.05;;;;;;;23.74;42.79;102266.78;4971086;28;115117;-65
2022/07/15 08:29:05;;;;;;;3.92;1.10;;;;;;;23.75;42.23;102273.88;4984346;28;124059;-66
2022/07/15 08:31:34;;;;;;;4.47;1.00;;;;;;;23.70;41.77;102281.53;4989545;28;123988;-65
2022/07/15 08:34:06;;;;;;;3.67;1.05;;;;;;;23.67;41.79;102288.03;4990181;28;114182;-65
2022/07/15 08:36:33;;;;;;;2.42;0.95;;;;;;;23.72;41.95;102274.16;4987698;28;114600;-65
2022/07/15 08:39:00;;;;;;;5.07;1.10;;;;;;;23.82;42.24;102282.44;4986899;28;124438;-65
2022/07/15 08:41:33;;;;;;;4.53;1.13;;;;;;;23.97;41.91;102277.66;4971057;28;124094;-65
2022/07/15 08:44:00;;;;;;;3.78;1.05;;;;;;;24.10;42.07;102273.00;4962030;28;113763;-65
2022/07/15 08:46:28;;;;;;;2.42;0.85;;;;;;;24.18;41.47;102285.91;4987122;28;113963;-65
2022/07/15 08:49:04;;;;;;;6.47;1.17;;;;;;;24.16;40.91;102280.63;4986264;28;123898;-65
2022/07/15 08:51:35;;;;;;;3.20;0.90;;;;;;;24.16;41.00;102288.72;4987852;28;123906;-65
2022/07/15 08:54:02;;;;;;;3.75;0.90;;;;;;;24.22;41.19;102277.44;4989188;28;114196;-66
2022/07/15 08:56:33;;;;;;;4.78;1.20;;;;;;;24.31;41.53;102280.38;4970548;28;114086;-65
2022/07/15 08:59:03;;;;;;;3.85;1.00;;;;;;;24.45;41.39;102272.00;4956608;28;124029;-65
2022/07/15 09:01:32;;;;;;;3.75;1.17;;;;;;;24.60;41.14;102270.78;4984650;28;123973;-65
2022/07/15 09:03:59;;;;;;;4.28;1.15;;;;;;;24.71;40.66;102271.72;4956154;28;114434;-65
2022/07/15 09:06:36;;;;;;;4.05;1.00;;;;;;;24.79;40.20;102269.22;4989416;28;114047;-65
2022/07/15 09:09:24;;;;;;;3.05;1.10;;;;;;;24.85;39.61;102263.31;4983251;28;124125;-65
2022/07/15 09:12:09;;;;;;;4.18;1.10;;;;;;;24.87;39.97;102261.34;4971080;28;124886;-65
2022/07/15 09:14:44;;;;;;;3.88;0.93;;;;;;;24.95;40.06;102258.84;4988652;28;115555;-65
2022/07/15 09:17:12;;;;;;;2.25;0.95;;;;;;;24.99;39.80;102265.72;4970130;28;114940;-65
2022/07/15 09:19:56;;;;;;;3.17;1.02;;;;;;;24.98;39.74;102261.31;4989314;28;123930;-66
2022/07/15 09:22:25;;;;;;;2.75;1.05;;;;;;;25.02;39.66;102253.78;4987478;28;124044;-65
2022/07/15 09:25:09;;;;;;;2.97;0.98;;;;;;;25.13;40.24;102260.97;4991941;28;114652;-65
2022/07/15 09:27:42;;;;;;;4.87;0.90;;;;;;;25.22;39.62;102244.81;4990600;28;114122;-65
2022/07/15 09:33:45;;;;;;;3.40;0.82;;;;;;;25.28;38.81;102248.88;4992481;28;123887;-64
2022/07/15 09:36:04;;;;;;;3.67;0.93;;;;;;;25.31;38.78;102253.19;4982506;28;114578;-64
2022/07/15 09:38:43;;;;;;;5.53;0.85;;;;;;;25.40;38.74;102250.53;4992261;28;96741;-64
2022/07/15 09:41:18;;;;;;;3.83;0.93;;;;;;;25.55;38.51;102252.91;4989731;28;124079;-65
2022/07/15 09:43:49;;;;;;;3.83;1.00;;;;;;;25.68;38.53;102255.44;4991584;28;123875;-64
2022/07/15 09:46:17;;;;;;;1.60;0.75;;;;;;;25.76;37.71;102256.47;4990540;28;114558;-64
2022/07/15 09:48:47;;;;;;;3.67;0.98;;;;;;;25.74;37.08;102250.31;4974673;28;114375;-64
2022/07/15 09:51:16;;;;;;;2.13;0.80;;;;;;;25.58;36.26;102255.34;4990115;28;124398;-64
2022/07/15 09:53:44;;;;;;;2.15;0.68;;;;;;;25.40;35.85;102253.25;4990986;28;124548;-65
2022/07/15 09:56:15;;;;;;;3.55;0.90;;;;;;;25.33;35.99;102256.63;4991610;28;114892;-64
2022/07/15 09:58:44;;;;;;;2.58;0.88;;;;;;;25.38;36.70;102257.94;4990925;28;114062;-65
2022/07/15 10:01:12;;;;;;;1.60;0.70;;;;;;;25.52;36.82;102250.47;4962208;28;123234;-65
2022/07/15 10:03:40;;;;;;;4.20;1.20;;;;;;;25.67;36.85;102253.69;4988708;28;123940;-65
2022/07/15 10:06:09;;;;;;;2.45;0.80;;;;;;;25.78;36.58;102249.03;4990324;28;115922;-65
2022/07/15 10:08:36;;;;;;;6.85;0.90;;;;;;;25.80;36.20;102248.91;4990177;28;115110;-64
2022/07/15 10:11:09;;;;;;;2.83;0.70;;;;;;;25.82;35.41;102255.94;4991209;28;123991;-64
2022/07/15 10:13:52;;;;;;;1.88;0.88;;;;;;;25.86;35.88;102248.38;4989354;28;123720;-64
2022/07/15 10:17:02;;;;;;;3.65;1.00;;;;;;;25.93;35.67;102243.31;4988626;28;114424;-65
2022/07/15 10:20:01;;;;;;;3.33;0.88;;;;;;;26.02;36.64;102242.50;4980813;28;113843;-64
2022/07/15 10:22:59;;;;;;;3.85;1.20;;;;;;;26.15;36.07;102236.81;4974329;28;123826;-65
2022/07/15 10:26:04;;;;;;;1.95;1.00;;;;;;;26.27;36.37;102232.13;4972743;28;122865;-64
2022/07/15 10:28:52;;;;;;;2.10;0.83;;;;;;;26.31;35.92;102220.00;4973955;28;114355;-64
2022/07/15 10:31:26;;;;;;;2.13;0.75;;;;;;;26.34;35.50;102225.16;4990297;28;114298;-64
2022/07/15 10:34:02;;;;;;;2.40;0.83;;;;;;;26.37;35.23;102224.88;4992012;28;124176;-65
2022/07/15 10:36:48;;;;;;;2.63;0.80;;;;;;;26.42;34.84;102223.44;4988349;28;123841;-64
2022/07/15 10:39:17;;;;;;;2.65;0.75;;;;;;;26.46;34.46;102226.75;4973499;28;114173;-65
2022/07/15 10:41:53;;;;;;;3.80;0.98;;;;;;;26.44;34.70;102226.03;4990061;28;114403;-64
2022/07/15 10:44:21;;;;;;;2.72;0.77;;;;;;;26.47;34.65;102209.47;4989207;28;124005;-65
2022/07/15 10:47:13;;;;;;;2.17;0.88;;;;;;;26.45;34.57;102211.47;4971591;28;124138;-65
2022/07/15 10:49:43;;;;;;;2.50;0.70;;;;;;;26.45;34.45;102216.91;4988502;28;114139;-64
2022/07/15 10:52:24;;;;;;;2.10;0.63;;;;;;;26.42;34.14;102214.44;4989164;28;114729;-64
2022/07/15 10:54:55;;;;;;;1.95;0.70;;;;;;;26.34;33.60;102214.28;4987683;28;124185;-65
2022/07/15 10:57:40;;;;;;;3.47;0.82;;;;;;;26.25;34.08;102209.69;4986829;28;124157;-64
2022/07/15 11:00:31;;;;;;;2.03;0.70;;;;;;;26.22;34.46;102200.81;4989913;28;115727;-65
2022/07/15 11:03:09;;;;;;;1.15;0.57;;;;;;;26.26;34.19;102206.84;4971737;28;114960;-64
2022/07/15 11:05:48;;;;;;;3.40;0.77;;;;;;;26.26;33.95;102205.97;4986981;28;123933;-64
2022/07/15 11:08:31;;;;;;;3.75;0.68;;;;;;;26.21;33.61;102199.09;4988720;28;123669;-64
2022/07/15 11:11:13;;;;;;;3.40;0.70;;;;;;;26.15;33.68;102198.81;4989197;28;114307;-64
2022/07/15 11:13:42;;;;;;;1.20;0.60;;;;;;;26.17;33.86;102192.22;4973132;28;113847;-64
2022/07/15 11:16:11;;;;;;;6.03;1.10;;;;;;;26.19;33.83;102201.09;4990610;28;123871;-64
2022/07/15 11:18:50;;;;;;;2.15;0.68;;;;;;;26.19;33.30;102194.81;4988223;28;124164;-64
2022/07/15 11:21:19;;;;;;;2.22;0.70;;;;;;;26.13;33.50;102190.78;4982811;28;114293;-64
2022/07/15 11:23:49;;;;;;;2.25;0.73;;;;;;;26.08;33.91;102198.50;4989420;28;114653;-64
2022/07/15 11:26:17;;;;;;;2.33;0.77;;;;;;;26.09;33.97;102200.22;4990339;28;124856;-64
2022/07/15 11:28:57;;;;;;;1.92;0.73;;;;;;;26.15;34.06;102194.22;4988422;28;123762;-64
2022/07/15 11:31:25;;;;;;;3.55;0.73;;;;;;;26.26;34.13;102192.38;4984863;28;114734;-64
2022/07/15 11:33:56;;;;;;;1.10;0.60;;;;;;;26.38;34.22;102194.00;4991297;28;114501;-64
2022/07/15 11:36:24;;;;;;;1.70;0.60;;;;;;;26.50;33.64;102192.84;4978074;28;124561;-65
2022/07/15 11:38:51;;;;;;;2.78;0.63;;;;;;;26.55;33.71;102196.03;4988365;28;123942;-64
2022/07/15 11:46:55;;;;;;;2.65;1.08;;;;;;;26.64;33.22;102172.63;4989432;28;124732;-66